sensor_id;sensor_type;location;lat;lon;timestamp;P1;durP1;ratioP1;P2;durP2;ratioP2
11098;SDS011;12223;42.650;23.364;2022-11-06T00:00:41;38.37;;;31.17;;
11098;SDS011;12223;42.650;23.364;2022-11-06T00:03:08;37.00;;;32.00;;
11098;SDS011;12223;42.650;23.364;2022-11-06T00:05:39;37.00;;;32.97;;
11098;SDS011;12223;42.650;23.364;2022-11-06T00:08:28;42.00;;;37.77;;
11098;SDS011;12223;42.650;23.364;2022-11-06T00:10:56;44.60;;;40.33;;
11098;SDS011;12223;42.650;23.364;2022-11-06T00:13:23;42.57;;;38.50;;
11098;SDS011;12223;42.650;23.364;2022-11-06T00:15:50;38.93;;;35.33;;
11098;SDS011;12223;42.650;23.364;2022-11-06T00:18:17;35.90;;;32.37;;
11098;SDS011;12223;42.650;23.364;2022-11-06T00:20:45;29.63;;;25.80;;
11098;SDS011;12223;42.650;23.364;2022-11-06T00:23:12;32.43;;;27.80;;
11098;SDS011;12223;42.650;23.364;2022-11-06T00:25:39;69.13;;;64.13;;
11098;SDS011;12223;42.650;23.364;2022-11-06T00:28:07;134.17;;;126.90;;
11098;SDS011;12223;42.650;23.364;2022-11-06T00:30:34;128.30;;;121.13;;
11098;SDS011;12223;42.650;23.364;2022-11-06T00:33:01;61.97;;;57.17;;
11098;SDS011;12223;42.650;23.364;2022-11-06T00:35:28;39.93;;;36.00;;
11098;SDS011;12223;42.650;23.364;2022-11-06T00:37:56;92.87;;;87.13;;
11098;SDS011;12223;42.650;23.364;2022-11-06T00:40:23;141.27;;;134.00;;
11098;SDS011;12223;42.650;23.364;2022-11-06T00:42:54;203.03;;;193.40;;
11098;SDS011;12223;42.650;23.364;2022-11-06T00:45:21;310.50;;;296.50;;
11098;SDS011;12223;42.650;23.364;2022-11-06T00:47:50;249.00;;;237.97;;
11098;SDS011;12223;42.650;23.364;2022-11-06T00:50:18;304.67;;;290.47;;
11098;SDS011;12223;42.650;23.364;2022-11-06T00:52:45;288.83;;;275.87;;
11098;SDS011;12223;42.650;23.364;2022-11-06T00:55:13;228.80;;;217.63;;
11098;SDS011;12223;42.650;23.364;2022-11-06T00:57:40;193.03;;;183.57;;
11098;SDS011;12223;42.650;23.364;2022-11-06T01:00:07;134.57;;;127.53;;
11098;SDS011;12223;42.650;23.364;2022-11-06T01:02:35;226.37;;;215.77;;
11098;SDS011;12223;42.650;23.364;2022-11-06T01:05:02;57.43;;;53.00;;
11098;SDS011;12223;42.650;23.364;2022-11-06T01:07:30;111.87;;;105.60;;
11098;SDS011;12223;42.650;23.364;2022-11-06T01:09:57;31.67;;;28.23;;
11098;SDS011;12223;42.650;23.364;2022-11-06T01:12:25;64.30;;;60.07;;
11098;SDS011;12223;42.650;23.364;2022-11-06T01:14:52;34.57;;;31.47;;
11098;SDS011;12223;42.650;23.364;2022-11-06T01:17:19;23.33;;;19.47;;
11098;SDS011;12223;42.650;23.364;2022-11-06T01:19:46;21.43;;;18.90;;
11098;SDS011;12223;42.650;23.364;2022-11-06T01:22:13;22.30;;;19.03;;
11098;SDS011;12223;42.650;23.364;2022-11-06T01:24:40;32.00;;;29.33;;
11098;SDS011;12223;42.650;23.364;2022-11-06T01:27:08;65.20;;;61.13;;
11098;SDS011;12223;42.650;23.364;2022-11-06T01:29:37;308.67;;;295.37;;
11098;SDS011;12223;42.650;23.364;2022-11-06T01:32:04;21.53;;;15.90;;
11098;SDS011;12223;42.650;23.364;2022-11-06T01:34:31;20.33;;;15.60;;
11098;SDS011;12223;42.650;23.364;2022-11-06T01:36:59;21.47;;;19.20;;
11098;SDS011;12223;42.650;23.364;2022-11-06T01:39:25;51.20;;;47.87;;
11098;SDS011;12223;42.650;23.364;2022-11-06T01:41:52;20.40;;;18.47;;
11098;SDS011;12223;42.650;23.364;2022-11-06T01:47:25;20.53;;;14.73;;
11098;SDS011;12223;42.650;23.364;2022-11-06T01:49:54;19.47;;;15.13;;
11098;SDS011;12223;42.650;23.364;2022-11-06T01:52:23;20.27;;;18.13;;
11098;SDS011;12223;42.650;23.364;2022-11-06T01:54:55;20.13;;;16.93;;
11098;SDS011;12223;42.650;23.364;2022-11-06T01:57:28;19.33;;;15.20;;
11098;SDS011;12223;42.650;23.364;2022-11-06T01:59:58;19.67;;;14.37;;
11098;SDS011;12223;42.650;23.364;2022-11-06T02:02:31;17.93;;;16.13;;
11098;SDS011;12223;42.650;23.364;2022-11-06T02:04:59;19.60;;;17.80;;
11098;SDS011;12223;42.650;23.364;2022-11-06T02:07:26;19.77;;;17.27;;
11098;SDS011;12223;42.650;23.364;2022-11-06T02:09:53;21.57;;;17.67;;
11098;SDS011;12223;42.650;23.364;2022-11-06T02:12:22;17.80;;;14.97;;
11098;SDS011;12223;42.650;23.364;2022-11-06T02:14:59;15.67;;;12.70;;
11098;SDS011;12223;42.650;23.364;2022-11-06T02:17:43;13.97;;;12.47;;
11098;SDS011;12223;42.650;23.364;2022-11-06T02:20:22;15.13;;;12.60;;
11098;SDS011;12223;42.650;23.364;2022-11-06T02:26:00;15.13;;;13.60;;
11098;SDS011;12223;42.650;23.364;2022-11-06T02:28:37;14.23;;;12.80;;
11098;SDS011;12223;42.650;23.364;2022-11-06T02:31:09;14.83;;;13.03;;
11098;SDS011;12223;42.650;23.364;2022-11-06T02:33:40;13.63;;;12.23;;
11098;SDS011;12223;42.650;23.364;2022-11-06T02:36:13;16.27;;;11.90;;
11098;SDS011;12223;42.650;23.364;2022-11-06T02:38:46;13.70;;;11.97;;
11098;SDS011;12223;42.650;23.364;2022-11-06T02:41:19;13.53;;;12.03;;
11098;SDS011;12223;42.650;23.364;2022-11-06T02:43:50;12.70;;;11.27;;
11098;SDS011;12223;42.650;23.364;2022-11-06T02:46:21;12.77;;;11.50;;
11098;SDS011;12223;42.650;23.364;2022-11-06T02:48:53;16.30;;;11.50;;
11098;SDS011;12223;42.650;23.364;2022-11-06T02:51:27;12.10;;;10.80;;
11098;SDS011;12223;42.650;23.364;2022-11-06T02:53:57;15.40;;;10.90;;
11098;SDS011;12223;42.650;23.364;2022-11-06T02:56:28;15.70;;;12.87;;
11098;SDS011;12223;42.650;23.364;2022-11-06T02:59:03;19.03;;;16.17;;
11098;SDS011;12223;42.650;23.364;2022-11-06T03:01:38;16.37;;;14.73;;
11098;SDS011;12223;42.650;23.364;2022-11-06T03:04:10;13.93;;;11.73;;
11098;SDS011;12223;42.650;23.364;2022-11-06T03:06:42;12.23;;;11.00;;
11098;SDS011;12223;42.650;23.364;2022-11-06T03:09:14;20.97;;;13.17;;
11098;SDS011;12223;42.650;23.364;2022-11-06T03:11:45;12.60;;;11.17;;
11098;SDS011;12223;42.650;23.364;2022-11-06T03:14:32;14.00;;;11.90;;
11098;SDS011;12223;42.650;23.364;2022-11-06T03:17:04;13.43;;;12.03;;
11098;SDS011;12223;42.650;23.364;2022-11-06T03:19:41;15.40;;;13.80;;
11098;SDS011;12223;42.650;23.364;2022-11-06T03:22:13;15.10;;;13.70;;
11098;SDS011;12223;42.650;23.364;2022-11-06T03:24:48;13.90;;;12.50;;
11098;SDS011;12223;42.650;23.364;2022-11-06T03:27:21;16.07;;;14.57;;
11098;SDS011;12223;42.650;23.364;2022-11-06T03:30:00;22.53;;;20.50;;
11098;SDS011;12223;42.650;23.364;2022-11-06T03:32:32;19.47;;;17.87;;
11098;SDS011;12223;42.650;23.364;2022-11-06T03:35:01;14.23;;;11.87;;
11098;SDS011;12223;42.650;23.364;2022-11-06T03:37:33;13.70;;;11.47;;
11098;SDS011;12223;42.650;23.364;2022-11-06T03:40:08;14.20;;;12.50;;
11098;SDS011;12223;42.650;23.364;2022-11-06T03:42:41;14.00;;;12.23;;
11098;SDS011;12223;42.650;23.364;2022-11-06T03:45:12;14.33;;;12.97;;
11098;SDS011;12223;42.650;23.364;2022-11-06T03:47:46;16.17;;;12.67;;
11098;SDS011;12223;42.650;23.364;2022-11-06T03:50:19;15.60;;;12.13;;
11098;SDS011;12223;42.650;23.364;2022-11-06T03:52:50;14.57;;;12.37;;
11098;SDS011;12223;42.650;23.364;2022-11-06T03:55:25;20.50;;;18.90;;
11098;SDS011;12223;42.650;23.364;2022-11-06T03:57:57;16.77;;;14.87;;
11098;SDS011;12223;42.650;23.364;2022-11-06T04:00:30;14.47;;;13.07;;
11098;SDS011;12223;42.650;23.364;2022-11-06T04:03:01;14.93;;;11.73;;
11098;SDS011;12223;42.650;23.364;2022-11-06T04:05:36;19.37;;;16.97;;
11098;SDS011;12223;42.650;23.364;2022-11-06T04:08:07;59.63;;;56.13;;
11098;SDS011;12223;42.650;23.364;2022-11-06T04:11:03;34.40;;;32.20;;
11098;SDS011;12223;42.650;23.364;2022-11-06T04:13:49;40.63;;;37.80;;
11098;SDS011;12223;42.650;23.364;2022-11-06T04:16:27;81.73;;;77.50;;
11098;SDS011;12223;42.650;23.364;2022-11-06T04:18:57;39.37;;;37.17;;
11098;SDS011;12223;42.650;23.364;2022-11-06T04:21:25;20.23;;;18.93;;
11098;SDS011;12223;42.650;23.364;2022-11-06T04:24:07;20.97;;;19.37;;
11098;SDS011;12223;42.650;23.364;2022-11-06T04:27:02;98.93;;;94.23;;
11098;SDS011;12223;42.650;23.364;2022-11-06T04:29:54;81.47;;;77.67;;
11098;SDS011;12223;42.650;23.364;2022-11-06T04:32:33;87.90;;;83.40;;
11098;SDS011;12223;42.650;23.364;2022-11-06T04:35:10;96.97;;;91.93;;
11098;SDS011;12223;42.650;23.364;2022-11-06T04:37:47;44.57;;;41.67;;
11098;SDS011;12223;42.650;23.364;2022-11-06T04:40:22;32.20;;;29.77;;
11098;SDS011;12223;42.650;23.364;2022-11-06T04:42:57;24.23;;;22.20;;
11098;SDS011;12223;42.650;23.364;2022-11-06T04:45:35;16.57;;;14.97;;
11098;SDS011;12223;42.650;23.364;2022-11-06T04:48:06;37.63;;;35.43;;
11098;SDS011;12223;42.650;23.364;2022-11-06T04:50:35;94.40;;;90.03;;
11098;SDS011;12223;42.650;23.364;2022-11-06T04:53:07;130.57;;;124.93;;
11098;SDS011;12223;42.650;23.364;2022-11-06T04:55:37;30.63;;;28.63;;
11098;SDS011;12223;42.650;23.364;2022-11-06T04:58:11;42.03;;;39.27;;
11098;SDS011;12223;42.650;23.364;2022-11-06T05:00:38;152.37;;;145.77;;
11098;SDS011;12223;42.650;23.364;2022-11-06T05:03:12;113.33;;;107.67;;
11098;SDS011;12223;42.650;23.364;2022-11-06T05:05:39;58.37;;;54.67;;
11098;SDS011;12223;42.650;23.364;2022-11-06T05:08:08;39.17;;;36.67;;
11098;SDS011;12223;42.650;23.364;2022-11-06T05:10:39;26.47;;;24.40;;
11098;SDS011;12223;42.650;23.364;2022-11-06T05:13:06;28.83;;;26.70;;
11098;SDS011;12223;42.650;23.364;2022-11-06T05:15:33;50.77;;;47.90;;
11098;SDS011;12223;42.650;23.364;2022-11-06T05:18:00;159.47;;;151.97;;
11098;SDS011;12223;42.650;23.364;2022-11-06T05:20:29;182.47;;;173.50;;
11098;SDS011;12223;42.650;23.364;2022-11-06T05:22:56;129.50;;;123.20;;
11098;SDS011;12223;42.650;23.364;2022-11-06T05:25:26;37.33;;;34.53;;
11098;SDS011;12223;42.650;23.364;2022-11-06T05:27:54;44.47;;;40.37;;
11098;SDS011;12223;42.650;23.364;2022-11-06T05:30:24;50.97;;;47.60;;
11098;SDS011;12223;42.650;23.364;2022-11-06T05:32:52;57.70;;;54.27;;
11098;SDS011;12223;42.650;23.364;2022-11-06T05:35:19;73.87;;;69.50;;
11098;SDS011;12223;42.650;23.364;2022-11-06T05:37:47;163.17;;;155.00;;
11098;SDS011;12223;42.650;23.364;2022-11-06T05:40:15;69.07;;;65.37;;
11098;SDS011;12223;42.650;23.364;2022-11-06T05:42:42;58.27;;;54.87;;
11098;SDS011;12223;42.650;23.364;2022-11-06T05:45:10;53.27;;;50.43;;
11098;SDS011;12223;42.650;23.364;2022-11-06T05:47:40;65.53;;;61.73;;
11098;SDS011;12223;42.650;23.364;2022-11-06T05:50:08;21.67;;;19.47;;
11098;SDS011;12223;42.650;23.364;2022-11-06T05:52:35;17.73;;;15.90;;
11098;SDS011;12223;42.650;23.364;2022-11-06T05:55:05;25.97;;;23.97;;
11098;SDS011;12223;42.650;23.364;2022-11-06T05:57:33;69.03;;;65.33;;
11098;SDS011;12223;42.650;23.364;2022-11-06T06:00:00;186.10;;;177.37;;
11098;SDS011;12223;42.650;23.364;2022-11-06T06:02:27;220.10;;;209.30;;
11098;SDS011;12223;42.650;23.364;2022-11-06T06:04:54;196.93;;;188.23;;
11098;SDS011;12223;42.650;23.364;2022-11-06T06:07:20;84.03;;;79.77;;
11098;SDS011;12223;42.650;23.364;2022-11-06T06:09:47;63.60;;;60.30;;
11098;SDS011;12223;42.650;23.364;2022-11-06T06:12:16;39.17;;;36.30;;
11098;SDS011;12223;42.650;23.364;2022-11-06T06:14:43;41.13;;;38.03;;
11098;SDS011;12223;42.650;23.364;2022-11-06T06:17:09;32.13;;;29.50;;
11098;SDS011;12223;42.650;23.364;2022-11-06T06:19:36;30.07;;;27.90;;
11098;SDS011;12223;42.650;23.364;2022-11-06T06:22:03;26.20;;;23.70;;
11098;SDS011;12223;42.650;23.364;2022-11-06T06:24:30;23.07;;;21.10;;
11098;SDS011;12223;42.650;23.364;2022-11-06T06:26:58;20.43;;;18.73;;
11098;SDS011;12223;42.650;23.364;2022-11-06T06:29:26;24.73;;;22.40;;
11098;SDS011;12223;42.650;23.364;2022-11-06T06:31:52;20.93;;;18.80;;
11098;SDS011;12223;42.650;23.364;2022-11-06T06:34:19;26.93;;;24.70;;
11098;SDS011;12223;42.650;23.364;2022-11-06T06:36:47;21.03;;;19.17;;
11098;SDS011;12223;42.650;23.364;2022-11-06T06:39:15;31.30;;;29.00;;
11098;SDS011;12223;42.650;23.364;2022-11-06T06:41:43;23.53;;;21.37;;
11098;SDS011;12223;42.650;23.364;2022-11-06T06:44:09;22.67;;;20.47;;
11098;SDS011;12223;42.650;23.364;2022-11-06T06:46:38;31.50;;;29.13;;
11098;SDS011;12223;42.650;23.364;2022-11-06T06:49:05;18.37;;;16.70;;
11098;SDS011;12223;42.650;23.364;2022-11-06T06:51:32;16.37;;;14.63;;
11098;SDS011;12223;42.650;23.364;2022-11-06T06:53:59;16.37;;;14.67;;
11098;SDS011;12223;42.650;23.364;2022-11-06T06:56:26;19.00;;;15.90;;
11098;SDS011;12223;42.650;23.364;2022-11-06T06:58:53;24.30;;;22.17;;
11098;SDS011;12223;42.650;23.364;2022-11-06T07:01:20;26.60;;;22.20;;
11098;SDS011;12223;42.650;23.364;2022-11-06T07:03:48;29.57;;;27.27;;
11098;SDS011;12223;42.650;23.364;2022-11-06T07:06:16;28.83;;;26.03;;
11098;SDS011;12223;42.650;23.364;2022-11-06T07:08:44;19.97;;;17.90;;
11098;SDS011;12223;42.650;23.364;2022-11-06T07:11:11;17.13;;;15.40;;
11098;SDS011;12223;42.650;23.364;2022-11-06T07:13:38;19.17;;;16.87;;
11098;SDS011;12223;42.650;23.364;2022-11-06T07:16:06;20.73;;;18.73;;
11098;SDS011;12223;42.650;23.364;2022-11-06T07:18:34;23.37;;;21.13;;
11098;SDS011;12223;42.650;23.364;2022-11-06T07:21:04;19.50;;;14.33;;
11098;SDS011;12223;42.650;23.364;2022-11-06T07:23:32;19.47;;;16.37;;
11098;SDS011;12223;42.650;23.364;2022-11-06T07:26:00;19.07;;;16.57;;
11098;SDS011;12223;42.650;23.364;2022-11-06T07:28:32;19.40;;;15.27;;
11098;SDS011;12223;42.650;23.364;2022-11-06T07:30:59;15.87;;;14.20;;
11098;SDS011;12223;42.650;23.364;2022-11-06T07:33:28;20.67;;;16.00;;
11098;SDS011;12223;42.650;23.364;2022-11-06T07:36:01;17.80;;;15.83;;
11098;SDS011;12223;42.650;23.364;2022-11-06T07:38:34;20.87;;;16.10;;
11098;SDS011;12223;42.650;23.364;2022-11-06T07:41:03;37.73;;;35.03;;
11098;SDS011;12223;42.650;23.364;2022-11-06T07:43:32;27.27;;;24.40;;
11098;SDS011;12223;42.650;23.364;2022-11-06T07:45:59;20.20;;;18.27;;
11098;SDS011;12223;42.650;23.364;2022-11-06T07:48:26;35.07;;;32.00;;
11098;SDS011;12223;42.650;23.364;2022-11-06T07:50:53;37.23;;;34.43;;
11098;SDS011;12223;42.650;23.364;2022-11-06T07:53:21;21.23;;;18.67;;
11098;SDS011;12223;42.650;23.364;2022-11-06T07:55:49;31.67;;;29.27;;
11098;SDS011;12223;42.650;23.364;2022-11-06T07:58:20;19.50;;;17.60;;
11098;SDS011;12223;42.650;23.364;2022-11-06T08:00:48;44.97;;;41.77;;
11098;SDS011;12223;42.650;23.364;2022-11-06T08:03:17;43.83;;;40.90;;
11098;SDS011;12223;42.650;23.364;2022-11-06T08:05:44;51.37;;;48.20;;
11098;SDS011;12223;42.650;23.364;2022-11-06T08:08:11;29.40;;;26.97;;
11098;SDS011;12223;42.650;23.364;2022-11-06T08:10:40;22.97;;;20.67;;
11098;SDS011;12223;42.650;23.364;2022-11-06T08:13:08;42.33;;;39.17;;
11098;SDS011;12223;42.650;23.364;2022-11-06T08:15:35;53.73;;;50.33;;
11098;SDS011;12223;42.650;23.364;2022-11-06T08:18:03;46.63;;;43.27;;
11098;SDS011;12223;42.650;23.364;2022-11-06T08:20:30;39.90;;;36.70;;
11098;SDS011;12223;42.650;23.364;2022-11-06T08:22:58;34.03;;;30.93;;
11098;SDS011;12223;42.650;23.364;2022-11-06T08:25:25;26.93;;;24.37;;
11098;SDS011;12223;42.650;23.364;2022-11-06T08:27:54;33.73;;;30.77;;
11098;SDS011;12223;42.650;23.364;2022-11-06T08:30:22;36.10;;;32.97;;
11098;SDS011;12223;42.650;23.364;2022-11-06T08:32:49;53.13;;;49.53;;
11098;SDS011;12223;42.650;23.364;2022-11-06T08:35:16;27.57;;;25.17;;
11098;SDS011;12223;42.650;23.364;2022-11-06T08:37:43;22.90;;;20.43;;
11098;SDS011;12223;42.650;23.364;2022-11-06T08:40:10;29.30;;;26.37;;
11098;SDS011;12223;42.650;23.364;2022-11-06T08:42:39;53.67;;;50.07;;
11098;SDS011;12223;42.650;23.364;2022-11-06T08:45:08;26.23;;;23.37;;
11098;SDS011;12223;42.650;23.364;2022-11-06T08:47:35;24.60;;;21.53;;
11098;SDS011;12223;42.650;23.364;2022-11-06T08:50:02;27.63;;;24.03;;
11098;SDS011;12223;42.650;23.364;2022-11-06T08:52:29;30.23;;;27.83;;
11098;SDS011;12223;42.650;23.364;2022-11-06T08:54:56;30.03;;;27.33;;
11098;SDS011;12223;42.650;23.364;2022-11-06T08:57:23;26.47;;;23.87;;
11098;SDS011;12223;42.650;23.364;2022-11-06T08:59:50;36.07;;;33.13;;
11098;SDS011;12223;42.650;23.364;2022-11-06T09:02:19;43.15;;;39.88;;
11098;SDS011;12223;42.650;23.364;2022-11-06T09:04:48;24.55;;;20.55;;
11098;SDS011;12223;42.650;23.364;2022-11-06T09:07:16;25.17;;;22.85;;
11098;SDS011;12223;42.650;23.364;2022-11-06T09:09:43;29.45;;;26.83;;
11098;SDS011;12223;42.650;23.364;2022-11-06T09:12:10;24.77;;;21.95;;
11098;SDS011;12223;42.650;23.364;2022-11-06T09:14:36;32.47;;;29.50;;
11098;SDS011;12223;42.650;23.364;2022-11-06T09:17:04;29.10;;;26.33;;
11098;SDS011;12223;42.650;23.364;2022-11-06T09:19:32;23.50;;;20.97;;
11098;SDS011;12223;42.650;23.364;2022-11-06T09:21:59;33.85;;;31.00;;
11098;SDS011;12223;42.650;23.364;2022-11-06T09:24:25;20.03;;;17.93;;
11098;SDS011;12223;42.650;23.364;2022-11-06T09:26:52;27.70;;;25.38;;
11098;SDS011;12223;42.650;23.364;2022-11-06T09:29:19;21.37;;;19.43;;
11098;SDS011;12223;42.650;23.364;2022-11-06T09:31:46;25.73;;;23.23;;
11098;SDS011;12223;42.650;23.364;2022-11-06T09:34:13;39.77;;;37.03;;
11098;SDS011;12223;42.650;23.364;2022-11-06T09:36:41;29.17;;;26.83;;
11098;SDS011;12223;42.650;23.364;2022-11-06T09:39:08;22.70;;;20.60;;
11098;SDS011;12223;42.650;23.364;2022-11-06T09:41:36;27.70;;;25.73;;
11098;SDS011;12223;42.650;23.364;2022-11-06T09:44:15;24.90;;;22.80;;
11098;SDS011;12223;42.650;23.364;2022-11-06T09:46:51;17.97;;;16.27;;
11098;SDS011;12223;42.650;23.364;2022-11-06T09:49:25;28.90;;;26.70;;
11098;SDS011;12223;42.650;23.364;2022-11-06T09:51:58;30.23;;;27.98;;
11098;SDS011;12223;42.650;23.364;2022-11-06T09:54:29;40.97;;;38.53;;
11098;SDS011;12223;42.650;23.364;2022-11-06T09:57:02;16.20;;;14.70;;
11098;SDS011;12223;42.650;23.364;2022-11-06T09:59:34;23.43;;;21.73;;
11098;SDS011;12223;42.650;23.364;2022-11-06T10:02:09;33.33;;;31.17;;
11098;SDS011;12223;42.650;23.364;2022-11-06T10:04:48;22.53;;;20.40;;
11098;SDS011;12223;42.650;23.364;2022-11-06T10:07:30;38.17;;;35.63;;
11098;SDS011;12223;42.650;23.364;2022-11-06T10:10:00;19.00;;;17.47;;
11098;SDS011;12223;42.650;23.364;2022-11-06T10:12:33;20.63;;;19.13;;
11098;SDS011;12223;42.650;23.364;2022-11-06T10:15:15;21.05;;;19.52;;
11098;SDS011;12223;42.650;23.364;2022-11-06T10:17:49;21.27;;;19.70;;
11098;SDS011;12223;42.650;23.364;2022-11-06T10:20:25;20.67;;;19.17;;
11098;SDS011;12223;42.650;23.364;2022-11-06T10:23:02;17.60;;;16.13;;
11098;SDS011;12223;42.650;23.364;2022-11-06T10:25:43;14.83;;;13.63;;
11098;SDS011;12223;42.650;23.364;2022-11-06T10:28:21;15.70;;;14.20;;
11098;SDS011;12223;42.650;23.364;2022-11-06T10:30:58;17.53;;;16.23;;
11098;SDS011;12223;42.650;23.364;2022-11-06T10:33:42;17.80;;;16.40;;
11098;SDS011;12223;42.650;23.364;2022-11-06T10:36:19;17.93;;;16.40;;
11098;SDS011;12223;42.650;23.364;2022-11-06T10:38:51;19.33;;;17.73;;
11098;SDS011;12223;42.650;23.364;2022-11-06T10:41:20;15.55;;;14.30;;
11098;SDS011;12223;42.650;23.364;2022-11-06T10:43:50;16.73;;;15.10;;
11098;SDS011;12223;42.650;23.364;2022-11-06T10:46:23;18.40;;;17.10;;
11098;SDS011;12223;42.650;23.364;2022-11-06T10:48:56;49.43;;;46.87;;
11098;SDS011;12223;42.650;23.364;2022-11-06T10:51:38;37.97;;;36.10;;
11098;SDS011;12223;42.650;23.364;2022-11-06T10:54:24;19.37;;;18.27;;
11098;SDS011;12223;42.650;23.364;2022-11-06T10:57:04;16.43;;;15.53;;
11098;SDS011;12223;42.650;23.364;2022-11-06T10:59:41;21.93;;;20.80;;
11098;SDS011;12223;42.650;23.364;2022-11-06T11:02:10;15.50;;;14.43;;
11098;SDS011;12223;42.650;23.364;2022-11-06T11:04:49;16.30;;;15.30;;
11098;SDS011;12223;42.650;23.364;2022-11-06T11:07:16;25.47;;;24.13;;
11098;SDS011;12223;42.650;23.364;2022-11-06T11:09:44;19.17;;;18.13;;
11098;SDS011;12223;42.650;23.364;2022-11-06T11:12:21;26.77;;;25.33;;
11098;SDS011;12223;42.650;23.364;2022-11-06T11:15:05;17.27;;;16.23;;
11098;SDS011;12223;42.650;23.364;2022-11-06T11:17:38;22.20;;;20.90;;
11098;SDS011;12223;42.650;23.364;2022-11-06T11:20:19;19.57;;;18.30;;
11098;SDS011;12223;42.650;23.364;2022-11-06T11:23:14;24.43;;;23.03;;
11098;SDS011;12223;42.650;23.364;2022-11-06T11:25:45;18.90;;;17.63;;
11098;SDS011;12223;42.650;23.364;2022-11-06T11:28:20;15.70;;;14.70;;
11098;SDS011;12223;42.650;23.364;2022-11-06T11:30:53;57.20;;;54.47;;
11098;SDS011;12223;42.650;23.364;2022-11-06T11:33:23;28.40;;;26.87;;
11098;SDS011;12223;42.650;23.364;2022-11-06T11:35:52;49.13;;;46.77;;
11098;SDS011;12223;42.650;23.364;2022-11-06T11:38:19;23.00;;;21.47;;
11098;SDS011;12223;42.650;23.364;2022-11-06T11:40:48;20.63;;;19.10;;
11098;SDS011;12223;42.650;23.364;2022-11-06T11:43:20;19.27;;;17.57;;
11098;SDS011;12223;42.650;23.364;2022-11-06T11:48:51;18.03;;;16.23;;
11098;SDS011;12223;42.650;23.364;2022-11-06T11:51:28;18.73;;;16.87;;
11098;SDS011;12223;42.650;23.364;2022-11-06T11:53:59;25.03;;;23.10;;
11098;SDS011;12223;42.650;23.364;2022-11-06T11:56:33;28.90;;;26.77;;
11098;SDS011;12223;42.650;23.364;2022-11-06T11:59:11;22.40;;;20.57;;
11098;SDS011;12223;42.650;23.364;2022-11-06T12:01:43;20.23;;;18.63;;
11098;SDS011;12223;42.650;23.364;2022-11-06T12:04:14;19.03;;;17.37;;
11098;SDS011;12223;42.650;23.364;2022-11-06T12:06:48;18.60;;;16.93;;
11098;SDS011;12223;42.650;23.364;2022-11-06T12:09:18;15.07;;;13.53;;
11098;SDS011;12223;42.650;23.364;2022-11-06T12:11:47;18.13;;;16.50;;
11098;SDS011;12223;42.650;23.364;2022-11-06T12:14:16;16.27;;;14.53;;
11098;SDS011;12223;42.650;23.364;2022-11-06T12:16:56;20.07;;;18.33;;
11098;SDS011;12223;42.650;23.364;2022-11-06T12:19:29;18.07;;;16.47;;
11098;SDS011;12223;42.650;23.364;2022-11-06T12:21:59;17.83;;;16.47;;
11098;SDS011;12223;42.650;23.364;2022-11-06T12:24:33;18.77;;;17.27;;
11098;SDS011;12223;42.650;23.364;2022-11-06T12:27:07;19.07;;;17.27;;
11098;SDS011;12223;42.650;23.364;2022-11-06T12:29:40;17.43;;;15.90;;
11098;SDS011;12223;42.650;23.364;2022-11-06T12:32:14;38.03;;;35.93;;
11098;SDS011;12223;42.650;23.364;2022-11-06T12:34:51;20.53;;;19.03;;
11098;SDS011;12223;42.650;23.364;2022-11-06T12:37:33;17.20;;;15.70;;
11098;SDS011;12223;42.650;23.364;2022-11-06T12:40:11;23.47;;;21.83;;
11098;SDS011;12223;42.650;23.364;2022-11-06T12:42:47;15.03;;;14.00;;
11098;SDS011;12223;42.650;23.364;2022-11-06T12:45:21;23.90;;;22.50;;
11098;SDS011;12223;42.650;23.364;2022-11-06T12:48:00;13.13;;;12.13;;
11098;SDS011;12223;42.650;23.364;2022-11-06T12:50:32;16.07;;;14.87;;
11098;SDS011;12223;42.650;23.364;2022-11-06T12:53:22;15.73;;;14.50;;
11098;SDS011;12223;42.650;23.364;2022-11-06T12:55:58;14.07;;;12.97;;
11098;SDS011;12223;42.650;23.364;2022-11-06T12:58:50;17.03;;;15.63;;
11098;SDS011;12223;42.650;23.364;2022-11-06T13:01:30;27.33;;;25.53;;
11098;SDS011;12223;42.650;23.364;2022-11-06T13:04:16;47.00;;;44.50;;
11098;SDS011;12223;42.650;23.364;2022-11-06T13:07:06;24.00;;;22.20;;
11098;SDS011;12223;42.650;23.364;2022-11-06T13:09:55;31.57;;;29.63;;
11098;SDS011;12223;42.650;23.364;2022-11-06T13:12:30;22.73;;;21.27;;
11098;SDS011;12223;42.650;23.364;2022-11-06T13:15:07;20.97;;;19.57;;
11098;SDS011;12223;42.650;23.364;2022-11-06T13:17:45;19.37;;;18.17;;
11098;SDS011;12223;42.650;23.364;2022-11-06T13:20:22;33.17;;;31.27;;
11098;SDS011;12223;42.650;23.364;2022-11-06T13:22:55;56.10;;;53.27;;
11098;SDS011;12223;42.650;23.364;2022-11-06T13:25:26;20.67;;;19.03;;
11098;SDS011;12223;42.650;23.364;2022-11-06T13:28:02;25.00;;;23.40;;
11098;SDS011;12223;42.650;23.364;2022-11-06T13:30:35;23.73;;;22.27;;
11098;SDS011;12223;42.650;23.364;2022-11-06T13:33:05;22.27;;;20.80;;
11098;SDS011;12223;42.650;23.364;2022-11-06T13:35:36;22.07;;;20.43;;
11098;SDS011;12223;42.650;23.364;2022-11-06T13:38:06;32.27;;;30.43;;
11098;SDS011;12223;42.650;23.364;2022-11-06T13:40:38;23.03;;;21.60;;
11098;SDS011;12223;42.650;23.364;2022-11-06T13:43:10;17.43;;;16.20;;
11098;SDS011;12223;42.650;23.364;2022-11-06T13:45:45;18.23;;;17.03;;
11098;SDS011;12223;42.650;23.364;2022-11-06T13:48:18;32.43;;;30.77;;
11098;SDS011;12223;42.650;23.364;2022-11-06T13:50:57;38.87;;;36.87;;
11098;SDS011;12223;42.650;23.364;2022-11-06T13:53:30;23.13;;;21.63;;
11098;SDS011;12223;42.650;23.364;2022-11-06T13:56:05;36.63;;;34.10;;
11098;SDS011;12223;42.650;23.364;2022-11-06T14:01:44;21.57;;;20.07;;
11098;SDS011;12223;42.650;23.364;2022-11-06T14:07:15;13.00;;;11.80;;
11098;SDS011;12223;42.650;23.364;2022-11-06T14:09:44;12.10;;;11.10;;
11098;SDS011;12223;42.650;23.364;2022-11-06T14:12:14;12.17;;;11.27;;
11098;SDS011;12223;42.650;23.364;2022-11-06T14:14:45;23.07;;;21.77;;
11098;SDS011;12223;42.650;23.364;2022-11-06T14:17:19;13.67;;;12.73;;
11098;SDS011;12223;42.650;23.364;2022-11-06T14:19:59;12.80;;;11.90;;
11098;SDS011;12223;42.650;23.364;2022-11-06T14:22:28;10.23;;;9.43;;
11098;SDS011;12223;42.650;23.364;2022-11-06T14:24:56;12.17;;;11.27;;
11098;SDS011;12223;42.650;23.364;2022-11-06T14:30:41;11.23;;;10.33;;
11098;SDS011;12223;42.650;23.364;2022-11-06T14:33:10;10.10;;;9.20;;
11098;SDS011;12223;42.650;23.364;2022-11-06T14:35:53;9.00;;;8.30;;
11098;SDS011;12223;42.650;23.364;2022-11-06T14:44:14;16.77;;;15.60;;
11098;SDS011;12223;42.650;23.364;2022-11-06T14:46:48;24.10;;;22.83;;
11098;SDS011;12223;42.650;23.364;2022-11-06T14:49:20;11.63;;;10.70;;
11098;SDS011;12223;42.650;23.364;2022-11-06T14:51:57;22.57;;;21.23;;
11098;SDS011;12223;42.650;23.364;2022-11-06T14:54:27;17.83;;;16.77;;
11098;SDS011;12223;42.650;23.364;2022-11-06T14:56:54;9.40;;;8.70;;